createdAt,value
2023-04-15T00:00:17.792Z,10.82
2023-04-15T00:01:11.904Z,11.26
2023-04-15T00:02:14.342Z,11.04
2023-04-15T00:03:08.849Z,10.73
2023-04-15T00:04:00.532Z,10.75
2023-04-15T00:04:52.171Z,10.33
2023-04-15T00:05:43.680Z,10.36
2023-04-15T00:06:37.527Z,10.93
2023-04-15T00:07:29.611Z,10.41
2023-04-15T00:08:21.090Z,9.64
2023-04-15T00:09:12.561Z,9.12
2023-04-15T00:10:05.376Z,8.92
2023-04-15T00:11:05.651Z,9.07
2023-04-15T00:11:57.655Z,9.80
2023-04-15T00:12:49.200Z,9.87
2023-04-15T00:13:43.981Z,10.52
2023-04-15T00:14:38.681Z,10.77
2023-04-15T00:15:30.169Z,10.06
2023-04-15T00:16:21.844Z,10.07
2023-04-15T00:17:13.489Z,10.64
2023-04-15T00:18:04.841Z,10.08
2023-04-15T00:18:56.845Z,9.70
2023-04-15T00:19:48.308Z,10.96
2023-04-15T00:20:39.929Z,10.92
2023-04-15T00:21:33.902Z,10.62
2023-04-15T00:22:26.797Z,11.21
2023-04-15T00:23:18.702Z,11.97
2023-04-15T00:24:10.120Z,11.94
2023-04-15T00:25:02.124Z,12.11
2023-04-15T00:25:53.625Z,11.61
2023-04-15T00:26:45.041Z,11.32
2023-04-15T00:27:36.763Z,11.68
2023-04-15T00:28:28.495Z,10.76
2023-04-15T00:29:22.595Z,10.24
2023-04-15T00:30:14.084Z,9.71
2023-04-15T00:31:05.660Z,9.64
2023-04-15T00:32:00.196Z,9.28
2023-04-15T00:32:53.990Z,9.65
2023-04-15T00:33:48.650Z,9.78
2023-04-15T00:34:40.166Z,9.87
2023-04-15T00:35:32.703Z,10.16
2023-04-15T00:36:24.476Z,9.63
2023-04-15T00:37:15.982Z,9.44
2023-04-15T00:38:10.187Z,8.98
2023-04-15T00:39:02.876Z,9.55
2023-04-15T00:39:54.392Z,10.00
2023-04-15T00:40:46.156Z,9.83
2023-04-15T00:41:42.451Z,9.36
2023-04-15T00:42:34.910Z,9.62
2023-04-15T00:43:26.645Z,10.22
2023-04-15T00:44:18.853Z,10.14
2023-04-15T00:45:10.980Z,9.63
2023-04-15T00:46:05.907Z,9.00
2023-04-15T00:46:59.426Z,9.85
2023-04-15T00:47:51.281Z,10.16
2023-04-15T00:48:43.789Z,9.83
2023-04-15T00:49:36.634Z,9.58
2023-04-15T00:50:30.571Z,9.80
2023-04-15T00:51:22.292Z,9.50
2023-04-15T00:52:18.516Z,9.61
2023-04-15T00:53:09.997Z,9.48
2023-04-15T00:54:04.333Z,9.53
2023-04-15T00:54:55.985Z,8.84
2023-04-15T00:55:47.569Z,8.44
2023-04-15T00:56:39.886Z,8.98
2023-04-15T00:57:31.669Z,8.34
2023-04-15T00:58:27.972Z,7.99
2023-04-15T00:59:22.866Z,7.90
2023-04-15T01:00:14.573Z,7.74
2023-04-15T01:01:06.690Z,7.55
2023-04-15T01:01:58.412Z,7.53
2023-04-15T01:02:52.632Z,7.42
2023-04-15T01:03:44.974Z,6.50
2023-04-15T01:04:36.992Z,6.66
2023-04-15T01:05:29.443Z,6.41
2023-04-15T01:06:22.154Z,6.49
2023-04-15T01:07:13.950Z,6.21
2023-04-15T01:08:06.140Z,6.37
2023-04-15T01:08:58.774Z,6.48
2023-04-15T01:09:50.890Z,6.35
2023-04-15T01:10:45.356Z,5.77
2023-04-15T01:11:37.776Z,6.62
2023-04-15T01:12:29.477Z,5.93
2023-04-15T01:13:24.233Z,6.43
2023-04-15T01:14:16.109Z,6.02
2023-04-15T01:15:08.369Z,6.10
2023-04-15T01:16:00.951Z,6.08
2023-04-15T01:16:53.183Z,6.29
2023-04-15T01:17:46.788Z,6.07
2023-04-15T01:18:38.817Z,6.12
2023-04-15T01:19:31.643Z,6.48
2023-04-15T01:20:23.406Z,6.44
2023-04-15T01:21:14.887Z,6.55
2023-04-15T01:22:09.405Z,6.91
2023-04-15T01:23:03.600Z,6.41
2023-04-15T01:23:56.868Z,6.69
2023-04-15T01:25:01.052Z,6.85
2023-04-15T01:25:53.745Z,6.56
2023-04-15T01:26:46.451Z,6.76
2023-04-15T01:27:42.262Z,6.61
2023-04-15T01:28:35.406Z,7.12
2023-04-15T01:29:27.485Z,6.76
2023-04-15T01:30:18.936Z,6.27
2023-04-15T01:31:13.661Z,6.39
2023-04-15T01:32:05.822Z,6.57
2023-04-15T01:32:57.431Z,6.50
2023-04-15T01:33:48.941Z,6.46
2023-04-15T01:34:40.395Z,6.77
2023-04-15T01:35:32.222Z,6.89
2023-04-15T01:36:23.915Z,6.31
2023-04-15T01:37:20.061Z,6.17
2023-04-15T01:38:13.588Z,6.70
2023-04-15T01:39:09.708Z,6.33
2023-04-15T01:40:01.175Z,6.23
2023-04-15T01:40:55.381Z,6.44
2023-04-15T01:41:49.368Z,6.72
2023-04-15T01:42:41.166Z,6.68
2023-04-15T01:43:36.348Z,6.40
2023-04-15T01:44:27.794Z,5.89
2023-04-15T01:45:19.578Z,6.57
2023-04-15T01:46:11.105Z,6.57
2023-04-15T01:47:02.686Z,6.30
2023-04-15T01:47:54.698Z,5.91
2023-04-15T01:48:46.758Z,6.27
2023-04-15T01:49:38.195Z,6.12
2023-04-15T01:50:30.816Z,6.39
2023-04-15T01:51:23.517Z,6.43
2023-04-15T01:52:15.671Z,6.29
2023-04-15T01:53:07.365Z,6.12
2023-04-15T01:53:58.903Z,6.34
2023-04-15T01:54:51.286Z,5.74
2023-04-15T01:55:44.028Z,5.77
2023-04-15T01:56:35.571Z,6.13
2023-04-15T01:57:28.359Z,6.13
2023-04-15T01:58:22.526Z,5.71
2023-04-15T01:59:17.042Z,5.65
2023-04-15T02:00:09.244Z,5.62
2023-04-15T02:01:07.111Z,5.81
2023-04-15T02:02:00.383Z,6.16
2023-04-15T02:02:53.324Z,5.72
2023-04-15T02:03:46.814Z,5.65
2023-04-15T02:04:40.258Z,5.97
2023-04-15T02:05:31.895Z,6.25
2023-04-15T02:06:23.466Z,5.55
2023-04-15T02:07:17.681Z,5.86
2023-04-15T02:08:09.569Z,5.88
2023-04-15T02:09:04.236Z,5.45
2023-04-15T02:09:55.618Z,5.30
2023-04-15T02:10:49.218Z,5.68
2023-04-15T02:11:40.799Z,5.88
2023-04-15T02:12:32.255Z,5.71
2023-04-15T02:13:24.042Z,5.63
2023-04-15T02:14:15.544Z,5.88
2023-04-15T02:15:07.673Z,5.69
2023-04-15T02:15:59.732Z,5.98
2023-04-15T02:16:51.541Z,5.50
2023-04-15T02:17:45.910Z,5.43
2023-04-15T02:18:41.610Z,5.82
2023-04-15T02:19:35.539Z,5.21
2023-04-15T02:20:30.282Z,4.94
2023-04-15T02:21:23.163Z,5.39
2023-04-15T02:22:18.403Z,5.61
2023-04-15T02:23:11.658Z,5.59
2023-04-15T02:24:07.443Z,5.52
2023-04-15T02:24:59.055Z,5.16
2023-04-15T02:25:53.923Z,5.33
2023-04-15T02:26:46.643Z,5.50
2023-04-15T02:27:38.411Z,5.45
2023-04-15T02:28:29.897Z,5.75
2023-04-15T02:29:23.644Z,6.32
2023-04-15T02:30:18.065Z,6.16
2023-04-15T02:31:09.628Z,6.36
2023-04-15T02:32:01.660Z,6.38
2023-04-15T02:32:53.282Z,6.29
2023-04-15T02:33:45.068Z,6.01
2023-04-15T02:34:37.613Z,6.29
2023-04-15T02:35:29.121Z,6.25
2023-04-15T02:36:21.319Z,5.62
2023-04-15T02:37:13.756Z,5.91
2023-04-15T02:38:05.216Z,6.05
2023-04-15T02:38:57.543Z,5.32
2023-04-15T02:39:49.093Z,5.13
2023-04-15T02:40:40.635Z,5.97
2023-04-15T02:41:32.027Z,6.35
2023-04-15T02:42:23.768Z,6.34
2023-04-15T02:43:15.475Z,5.57
2023-04-15T02:44:11.347Z,6.32
2023-04-15T02:45:03.409Z,5.94
2023-04-15T02:45:58.600Z,5.81
2023-04-15T02:46:52.513Z,5.90
2023-04-15T02:47:45.824Z,5.68
2023-04-15T02:48:39.588Z,6.01
2023-04-15T02:49:31.148Z,6.13
2023-04-15T02:50:23.578Z,5.32
2023-04-15T02:51:20.329Z,5.73
2023-04-15T02:52:11.920Z,5.59
2023-04-15T02:53:03.339Z,5.92
2023-04-15T02:53:55.092Z,5.97
2023-04-15T02:54:46.656Z,5.42
2023-04-15T02:55:38.133Z,5.37
2023-04-15T02:56:31.021Z,5.54
2023-04-15T02:57:22.511Z,5.44
2023-04-15T02:58:14.004Z,5.67
2023-04-15T02:59:05.462Z,5.40
2023-04-15T02:59:57.046Z,5.66
2023-04-15T03:00:50.909Z,5.85
2023-04-15T03:01:44.228Z,5.70
2023-04-15T03:02:40.103Z,5.39
2023-04-15T03:03:32.639Z,5.59
2023-04-15T03:04:24.281Z,5.60
2023-04-15T03:05:18.292Z,5.36
2023-04-15T03:06:16.220Z,5.63
2023-04-15T03:07:07.701Z,5.63
2023-04-15T03:08:01.648Z,5.53
2023-04-15T03:08:56.927Z,5.63
2023-04-15T03:09:48.624Z,6.01
2023-04-15T03:10:39.993Z,5.61
2023-04-15T03:11:33.648Z,6.00
2023-04-15T03:12:26.197Z,6.42
2023-04-15T03:13:21.603Z,5.95
2023-04-15T03:14:13.497Z,6.10
2023-04-15T03:15:09.789Z,6.13
2023-04-15T03:16:07.328Z,5.59
2023-04-15T03:16:59.541Z,5.61
2023-04-15T03:17:51.139Z,5.92
2023-04-15T03:18:45.354Z,6.09
2023-04-15T03:19:37.507Z,5.90
2023-04-15T03:20:29.340Z,5.62
2023-04-15T03:21:20.863Z,5.78
2023-04-15T03:22:14.305Z,5.76
2023-04-15T03:23:06.215Z,6.02
2023-04-15T03:23:57.644Z,6.13
2023-04-15T03:24:49.839Z,5.53
2023-04-15T03:25:42.108Z,6.00
2023-04-15T03:26:33.896Z,5.88
2023-04-15T03:27:29.882Z,6.18
2023-04-15T03:28:25.219Z,6.17
2023-04-15T03:29:16.922Z,6.26
2023-04-15T03:30:08.966Z,5.79
2023-04-15T03:31:03.656Z,5.87
2023-04-15T03:31:55.659Z,5.85
2023-04-15T03:32:47.537Z,6.03
2023-04-15T03:33:39.329Z,5.92
2023-04-15T03:34:30.728Z,5.58
2023-04-15T03:35:22.445Z,5.87
2023-04-15T03:36:14.171Z,6.06
2023-04-15T03:37:05.651Z,6.29
2023-04-15T03:37:59.681Z,6.43
2023-04-15T03:38:51.359Z,6.35
2023-04-15T03:39:42.878Z,6.05
2023-04-15T03:40:34.262Z,6.13
2023-04-15T03:41:26.673Z,6.33
2023-04-15T03:42:18.092Z,6.12
2023-04-15T03:43:09.749Z,6.43
2023-04-15T03:44:01.292Z,7.02
2023-04-15T03:44:53.000Z,7.26
2023-04-15T03:45:44.462Z,6.29
2023-04-15T03:46:36.185Z,6.35
2023-04-15T03:47:27.627Z,6.40
2023-04-15T03:48:19.397Z,6.14
2023-04-15T03:49:11.099Z,6.00
2023-04-15T03:50:07.113Z,6.08
2023-04-15T03:50:58.638Z,5.63
2023-04-15T03:51:50.644Z,5.83
2023-04-15T03:52:45.579Z,5.68
2023-04-15T03:53:37.060Z,6.39
2023-04-15T03:54:28.618Z,6.39
2023-04-15T03:55:22.657Z,6.51
2023-04-15T03:56:14.275Z,7.04
2023-04-15T03:57:05.721Z,7.73
2023-04-15T03:57:59.592Z,8.29
2023-04-15T03:58:51.054Z,8.88
2023-04-15T03:59:42.450Z,9.35
2023-04-15T04:00:33.899Z,9.67
2023-04-15T04:01:25.387Z,9.58
2023-04-15T04:02:17.254Z,9.68
2023-04-15T04:03:09.111Z,9.82
2023-04-15T04:04:00.976Z,9.62
2023-04-15T04:04:52.596Z,9.17
2023-04-15T04:05:44.720Z,9.18
2023-04-15T04:06:36.233Z,8.80
2023-04-15T04:07:27.855Z,8.65
2023-04-15T04:08:20.604Z,8.43
2023-04-15T04:09:14.482Z,8.21
2023-04-15T04:10:06.624Z,7.73
2023-04-15T04:10:58.105Z,7.87
2023-04-15T04:11:49.528Z,7.61
2023-04-15T04:12:41.434Z,7.35
2023-04-15T04:13:32.838Z,8.44
2023-04-15T04:14:29.907Z,8.10
2023-04-15T04:15:23.836Z,7.87
2023-04-15T04:16:15.512Z,7.97
2023-04-15T04:17:07.274Z,7.99
2023-04-15T04:18:01.321Z,7.79
2023-04-15T04:18:52.725Z,7.51
2023-04-15T04:19:44.389Z,7.66
2023-04-15T04:20:36.265Z,7.54
2023-04-15T04:21:28.019Z,8.23
2023-04-15T04:22:23.804Z,8.63
2023-04-15T04:23:15.507Z,8.50
2023-04-15T04:24:07.102Z,9.66
2023-04-15T04:24:59.931Z,11.96
2023-04-15T04:25:54.015Z,12.93
2023-04-15T04:26:46.865Z,13.06
2023-04-15T04:27:40.916Z,11.47
2023-04-15T04:28:32.558Z,11.28
2023-04-15T04:29:24.178Z,11.33
2023-04-15T04:30:16.163Z,11.06
2023-04-15T04:31:08.016Z,9.57
2023-04-15T04:31:59.780Z,9.39
2023-04-15T04:32:52.990Z,8.88
2023-04-15T04:33:46.872Z,8.94
2023-04-15T04:34:38.412Z,8.81
2023-04-15T04:35:29.905Z,9.00
2023-04-15T04:36:21.543Z,9.10
2023-04-15T04:37:13.168Z,9.13
2023-04-15T04:38:04.951Z,9.78
2023-04-15T04:38:57.137Z,9.25
2023-04-15T04:39:48.652Z,9.32
2023-04-15T04:40:40.483Z,10.11
2023-04-15T04:41:32.347Z,10.45
2023-04-15T04:42:24.012Z,10.90
2023-04-15T04:43:16.316Z,11.33
2023-04-15T04:44:07.744Z,10.60
2023-04-15T04:44:59.170Z,10.32
2023-04-15T04:45:50.661Z,10.39
2023-04-15T04:46:42.079Z,10.08
2023-04-15T04:47:33.623Z,9.17
2023-04-15T04:48:25.235Z,9.14
2023-04-15T04:49:16.788Z,9.09
2023-04-15T04:50:09.063Z,9.53
2023-04-15T04:51:00.892Z,9.31
2023-04-15T04:51:54.652Z,9.13
2023-04-15T04:52:46.498Z,9.16
2023-04-15T04:53:38.211Z,8.86
2023-04-15T04:54:31.086Z,8.70
2023-04-15T04:55:22.578Z,8.75
2023-04-15T04:56:14.027Z,8.70
2023-04-15T04:57:05.507Z,9.68
2023-04-15T04:57:56.923Z,9.34
2023-04-15T04:58:50.169Z,9.34
2023-04-15T04:59:44.074Z,9.53
2023-04-15T05:00:35.898Z,9.31
2023-04-15T05:01:27.802Z,8.74
2023-04-15T05:02:19.452Z,9.09
2023-04-15T05:03:11.707Z,8.70
2023-04-15T05:04:05.180Z,7.95
2023-04-15T05:04:56.942Z,7.94
2023-04-15T05:05:51.876Z,9.69
2023-04-15T05:06:43.522Z,11.07
2023-04-15T05:07:35.010Z,12.38
2023-04-15T05:08:26.501Z,12.91
2023-04-15T05:09:17.970Z,12.19
2023-04-15T05:10:10.076Z,11.85
2023-04-15T05:11:02.502Z,11.25
2023-04-15T05:11:54.206Z,10.28
2023-04-15T05:12:45.849Z,10.11
2023-04-15T05:13:38.707Z,10.23
2023-04-15T05:14:31.064Z,10.26
2023-04-15T05:15:22.506Z,10.40
2023-04-15T05:16:14.104Z,9.90
2023-04-15T05:17:05.686Z,9.26
2023-04-15T05:17:57.197Z,9.38
2023-04-15T05:18:48.630Z,9.50
2023-04-15T05:19:40.137Z,10.00
2023-04-15T05:20:31.652Z,9.90
2023-04-15T05:21:23.460Z,10.51
2023-04-15T05:22:15.167Z,9.71
2023-04-15T05:23:06.843Z,10.35
2023-04-15T05:24:00.907Z,9.87
2023-04-15T05:24:54.469Z,10.07
2023-04-15T05:25:45.998Z,10.82
2023-04-15T05:26:37.623Z,9.99
2023-04-15T05:27:29.144Z,9.76
2023-04-15T05:28:22.993Z,10.25
2023-04-15T05:29:14.471Z,9.64
2023-04-15T05:30:07.205Z,10.52
2023-04-15T05:30:58.943Z,11.03
2023-04-15T05:31:50.938Z,9.68
2023-04-15T05:32:42.456Z,9.64
2023-04-15T05:33:34.211Z,9.20
2023-04-15T05:34:26.201Z,9.04
2023-04-15T05:35:17.800Z,9.40
2023-04-15T05:36:09.739Z,8.99
2023-04-15T05:37:01.343Z,9.00
2023-04-15T05:37:52.781Z,8.83
2023-04-15T05:38:44.271Z,8.46
2023-04-15T05:39:35.967Z,8.98
2023-04-15T05:40:28.063Z,9.07
2023-04-15T05:41:19.945Z,8.76
2023-04-15T05:42:11.715Z,9.18
2023-04-15T05:43:05.375Z,9.57
2023-04-15T05:43:59.306Z,9.63
2023-04-15T05:44:50.940Z,9.28
2023-04-15T05:45:42.579Z,9.48
2023-04-15T05:46:34.175Z,9.05
2023-04-15T05:47:25.592Z,9.23
2023-04-15T05:48:19.148Z,9.35
2023-04-15T05:49:11.981Z,9.86
2023-04-15T05:50:04.416Z,9.49
2023-04-15T05:50:56.025Z,9.92
2023-04-15T05:51:48.243Z,9.66
2023-04-15T05:52:46.698Z,9.93
2023-04-15T05:53:41.939Z,9.54
2023-04-15T05:54:33.517Z,10.18
2023-04-15T05:55:25.066Z,10.49
2023-04-15T05:56:16.838Z,10.58
2023-04-15T05:57:08.233Z,10.76
2023-04-15T05:57:59.862Z,11.09
2023-04-15T05:58:53.377Z,11.19
2023-04-15T05:59:45.294Z,10.58
2023-04-15T06:00:36.790Z,10.88
2023-04-15T06:01:28.444Z,12.14
2023-04-15T06:02:20.266Z,11.80
2023-04-15T06:03:12.412Z,11.50
2023-04-15T06:04:04.151Z,11.46
2023-04-15T06:04:58.205Z,12.09
2023-04-15T06:05:49.799Z,12.53
2023-04-15T06:06:44.533Z,12.67
2023-04-15T06:07:36.816Z,12.74
2023-04-15T06:08:29.608Z,13.03
2023-04-15T06:09:21.520Z,12.26
2023-04-15T06:10:13.029Z,11.66
2023-04-15T06:11:04.555Z,11.78
2023-04-15T06:11:56.917Z,11.59
2023-04-15T06:12:48.644Z,11.19
2023-04-15T06:13:40.113Z,11.41
2023-04-15T06:14:31.788Z,11.11
2023-04-15T06:15:23.329Z,10.94
2023-04-15T06:16:17.425Z,11.19
2023-04-15T06:17:09.111Z,11.21
2023-04-15T06:18:00.598Z,11.22
2023-04-15T06:18:52.113Z,10.83
2023-04-15T06:19:43.539Z,10.39
2023-04-15T06:20:34.970Z,10.73
2023-04-15T06:21:27.008Z,10.96
2023-04-15T06:22:18.434Z,11.06
2023-04-15T06:23:09.879Z,11.03
2023-04-15T06:24:01.702Z,10.52
2023-04-15T06:24:55.553Z,10.29
2023-04-15T06:25:47.262Z,10.33
2023-04-15T06:26:43.892Z,10.15
2023-04-15T06:27:35.374Z,9.93
2023-04-15T06:28:26.776Z,9.95
2023-04-15T06:29:18.229Z,9.46
2023-04-15T06:30:10.232Z,10.16
2023-04-15T06:31:02.191Z,9.53
2023-04-15T06:31:53.710Z,8.91
2023-04-15T06:32:46.453Z,8.97
2023-04-15T06:33:38.192Z,9.16
2023-04-15T06:34:29.986Z,9.26
2023-04-15T06:35:22.362Z,8.81
2023-04-15T06:36:14.093Z,8.88
2023-04-15T06:37:06.396Z,8.21
2023-04-15T06:38:02.379Z,9.11
2023-04-15T06:38:54.120Z,8.87
2023-04-15T06:39:45.810Z,10.05
2023-04-15T06:40:37.631Z,9.47
2023-04-15T06:41:29.214Z,9.17
2023-04-15T06:42:20.860Z,9.49
2023-04-15T06:43:13.224Z,9.42
2023-04-15T06:44:04.970Z,9.44
2023-04-15T06:44:56.678Z,9.30
2023-04-15T06:45:50.900Z,9.90
2023-04-15T06:46:42.365Z,9.33
2023-04-15T06:47:33.792Z,9.89
2023-04-15T06:48:25.240Z,10.28
2023-04-15T06:49:17.127Z,10.50
2023-04-15T06:50:09.200Z,10.40
2023-04-15T06:51:00.909Z,10.03
2023-04-15T06:51:52.728Z,10.48
2023-04-15T06:52:44.355Z,10.70
2023-04-15T06:53:42.162Z,10.52
2023-04-15T06:54:36.183Z,10.53
2023-04-15T06:55:29.804Z,10.18
2023-04-15T06:56:21.865Z,10.72
2023-04-15T06:57:17.840Z,10.21
2023-04-15T06:58:09.250Z,9.84
2023-04-15T06:59:01.610Z,10.02
2023-04-15T06:59:54.559Z,11.05
2023-04-15T07:00:48.422Z,10.41
2023-04-15T07:01:41.347Z,10.03
2023-04-15T07:02:33.421Z,10.33
2023-04-15T07:03:25.026Z,12.53
2023-04-15T07:04:16.593Z,12.88
2023-04-15T07:05:11.322Z,12.50
2023-04-15T07:06:06.326Z,13.54
2023-04-15T07:06:57.753Z,12.38
2023-04-15T07:07:49.248Z,11.93
2023-04-15T07:08:40.764Z,11.25
2023-04-15T07:09:32.649Z,11.05
2023-04-15T07:10:25.543Z,11.27
2023-04-15T07:11:17.446Z,10.87
2023-04-15T07:12:10.919Z,11.49
2023-04-15T07:13:05.938Z,11.36
2023-04-15T07:14:00.415Z,11.21
2023-04-15T07:14:51.873Z,11.56
2023-04-15T07:15:43.313Z,10.84
2023-04-15T07:16:34.840Z,11.03
2023-04-15T07:17:26.321Z,11.13
2023-04-15T07:18:20.409Z,10.20
2023-04-15T07:19:11.876Z,10.14
2023-04-15T07:20:05.059Z,10.51
2023-04-15T07:20:56.470Z,10.06
2023-04-15T07:21:48.081Z,9.63
2023-04-15T07:22:40.725Z,9.98
2023-04-15T07:23:34.476Z,9.05
2023-04-15T07:24:26.843Z,10.25
2023-04-15T07:25:18.992Z,10.46
2023-04-15T07:26:11.281Z,10.97
2023-04-15T07:27:06.041Z,10.75
2023-04-15T07:27:57.523Z,9.91
2023-04-15T07:28:49.338Z,10.09
2023-04-15T07:29:41.274Z,10.46
2023-04-15T07:30:35.969Z,9.04
2023-04-15T07:31:27.688Z,9.18
2023-04-15T07:32:20.209Z,8.74
2023-04-15T07:33:12.101Z,8.27
2023-04-15T07:34:05.041Z,8.80
2023-04-15T07:34:57.001Z,8.66
2023-04-15T07:35:49.156Z,9.34
2023-04-15T07:36:40.805Z,8.32
2023-04-15T07:37:34.305Z,7.54
2023-04-15T07:38:28.344Z,7.62
2023-04-15T07:39:22.593Z,7.54
2023-04-15T07:40:16.391Z,7.13
2023-04-15T07:41:10.565Z,6.74
2023-04-15T07:42:02.358Z,6.66
2023-04-15T07:42:54.004Z,5.99
2023-04-15T07:43:45.815Z,5.99
2023-04-15T07:44:39.874Z,6.19
2023-04-15T07:45:32.036Z,6.10
2023-04-15T07:46:27.320Z,5.72
2023-04-15T07:47:18.916Z,5.52
2023-04-15T07:48:10.890Z,5.10
2023-04-15T07:49:02.581Z,5.06
2023-04-15T07:49:54.343Z,5.51
2023-04-15T07:50:45.881Z,4.59
2023-04-15T07:51:37.395Z,4.58
2023-04-15T07:52:28.901Z,4.41
2023-04-15T07:53:20.558Z,4.65
2023-04-15T07:54:11.975Z,4.61
2023-04-15T07:55:03.654Z,4.22
2023-04-15T07:55:55.109Z,4.15
2023-04-15T07:56:46.734Z,3.91
2023-04-15T07:57:38.466Z,3.66
2023-04-15T07:58:29.942Z,3.61
2023-04-15T07:59:21.530Z,4.08
2023-04-15T08:00:13.696Z,4.15
2023-04-15T08:01:06.853Z,3.98
2023-04-15T08:01:58.418Z,3.90
2023-04-15T08:02:50.253Z,3.90
2023-04-15T08:03:42.329Z,3.77
2023-04-15T08:04:34.250Z,3.82
2023-04-15T08:05:28.670Z,3.66
2023-04-15T08:06:23.025Z,3.29
2023-04-15T08:07:14.754Z,3.53
2023-04-15T08:08:07.177Z,3.76
2023-04-15T08:08:58.701Z,3.66
2023-04-15T08:09:50.261Z,3.56
2023-04-15T08:10:41.759Z,3.04
2023-04-15T08:11:33.292Z,2.92
2023-04-15T08:12:24.888Z,3.03
2023-04-15T08:13:17.241Z,3.05
2023-04-15T08:14:08.674Z,3.25
2023-04-15T08:15:02.820Z,3.19
2023-04-15T08:16:19.457Z,3.14
2023-04-15T08:17:10.870Z,3.02
2023-04-15T08:18:02.433Z,2.72
2023-04-15T08:18:56.251Z,2.94
2023-04-15T08:19:48.371Z,3.01
2023-04-15T08:20:40.447Z,2.79
2023-04-15T08:21:32.226Z,2.81
2023-04-15T08:22:24.058Z,2.90
2023-04-15T08:23:15.804Z,2.98
2023-04-15T08:24:08.213Z,3.24
2023-04-15T08:25:00.936Z,3.22
2023-04-15T08:25:55.334Z,2.72
2023-04-15T08:26:47.424Z,2.94
2023-04-15T08:27:38.992Z,3.26
2023-04-15T08:28:30.928Z,3.25
2023-04-15T08:29:22.360Z,3.19
2023-04-15T08:30:14.500Z,3.13
2023-04-15T08:31:08.338Z,3.55
2023-04-15T08:32:07.809Z,3.15
2023-04-15T08:32:59.411Z,3.01
2023-04-15T08:33:52.582Z,3.13
2023-04-15T08:34:44.147Z,3.02
2023-04-15T08:35:35.638Z,2.84
2023-04-15T08:36:27.172Z,2.89
2023-04-15T08:37:18.931Z,3.18
2023-04-15T08:38:10.675Z,3.09
2023-04-15T08:39:04.839Z,3.22
2023-04-15T08:39:56.716Z,2.97
2023-04-15T08:40:48.267Z,2.67
2023-04-15T08:42:02.815Z,2.73
2023-04-15T08:42:59.585Z,3.02
2023-04-15T08:43:58.664Z,2.94
2023-04-15T08:44:51.129Z,3.20
2023-04-15T08:45:44.364Z,2.34
2023-04-15T08:46:35.954Z,2.56
2023-04-15T08:47:33.834Z,2.54
2023-04-15T08:48:29.607Z,2.42
2023-04-15T08:49:22.677Z,2.59
2023-04-15T08:50:15.196Z,2.47
2023-04-15T08:51:08.480Z,2.52
2023-04-15T08:52:01.032Z,2.47
2023-04-15T08:52:55.645Z,2.38
2023-04-15T08:53:47.772Z,2.57
2023-04-15T08:54:42.146Z,2.37
2023-04-15T08:55:39.992Z,2.43
2023-04-15T08:56:33.338Z,2.25
2023-04-15T08:57:27.646Z,2.50
2023-04-15T08:58:19.997Z,2.39
2023-04-15T08:59:12.425Z,2.62
2023-04-15T09:00:05.736Z,2.60
2023-04-15T09:00:57.593Z,2.55
2023-04-15T09:01:53.516Z,2.23
2023-04-15T09:02:45.352Z,2.54
2023-04-15T09:03:37.657Z,2.65
2023-04-15T09:04:29.837Z,2.41
2023-04-15T09:05:22.988Z,2.48
2023-04-15T09:06:18.387Z,2.26
2023-04-15T09:07:09.851Z,2.66
2023-04-15T09:08:02.484Z,2.31
2023-04-15T09:08:56.911Z,2.11
2023-04-15T09:09:48.790Z,2.20
2023-04-15T09:10:49.368Z,2.30
2023-04-15T09:11:41.843Z,2.90
2023-04-15T09:12:37.076Z,2.82
2023-04-15T09:13:29.133Z,2.47
2023-04-15T09:14:23.181Z,2.67
2023-04-15T09:15:16.349Z,2.83
2023-04-15T09:16:10.582Z,2.91
2023-04-15T09:17:04.361Z,3.02
2023-04-15T09:17:57.068Z,3.02
2023-04-15T09:18:51.372Z,3.05
2023-04-15T09:19:42.970Z,3.04
2023-04-15T09:20:42.544Z,3.35
2023-04-15T09:21:34.539Z,3.27
2023-04-15T09:22:32.621Z,3.54
2023-04-15T09:23:24.230Z,3.43
2023-04-15T09:24:15.669Z,3.40
2023-04-15T09:25:16.194Z,3.15
2023-04-15T09:26:08.302Z,3.67
2023-04-15T09:27:00.557Z,3.56
2023-04-15T09:27:58.984Z,3.22
2023-04-15T09:28:50.626Z,3.83
2023-04-15T09:29:42.872Z,3.80
2023-04-15T09:30:35.195Z,3.52
2023-04-15T09:31:29.983Z,3.76
2023-04-15T09:32:23.418Z,3.57
2023-04-15T09:33:16.421Z,3.73
2023-04-15T09:34:08.157Z,3.57
2023-04-15T09:35:11.141Z,3.60
2023-04-15T09:36:05.823Z,3.43
2023-04-15T09:36:57.687Z,3.69
2023-04-15T09:37:49.952Z,3.47
2023-04-15T09:38:58.892Z,3.17
2023-04-15T09:39:52.993Z,2.94
2023-04-15T09:40:45.694Z,2.66
2023-04-15T09:41:40.381Z,2.68
2023-04-15T09:42:34.248Z,2.57
2023-04-15T09:43:40.783Z,2.46
2023-04-15T09:44:32.606Z,2.55
2023-04-15T09:45:27.159Z,2.90
2023-04-15T09:46:20.960Z,3.00
2023-04-15T09:47:30.385Z,2.94
2023-04-15T09:48:27.163Z,2.99
2023-04-15T09:49:19.452Z,2.90
2023-04-15T09:50:11.082Z,2.67
2023-04-15T09:51:02.658Z,2.57
2023-04-15T09:52:05.756Z,2.54
2023-04-15T09:52:59.504Z,2.16
2023-04-15T09:53:54.876Z,2.39
2023-04-15T09:54:46.590Z,2.61
2023-04-15T09:55:38.122Z,2.59
2023-04-15T09:56:42.424Z,2.60
2023-04-15T09:57:36.513Z,2.75
2023-04-15T09:58:35.175Z,2.72
2023-04-15T09:59:26.659Z,2.58
2023-04-15T10:00:18.085Z,2.71
2023-04-15T10:01:11.492Z,2.61
2023-04-15T10:02:08.892Z,2.56
2023-04-15T10:03:01.208Z,2.65
2023-04-15T10:03:56.107Z,2.95
2023-04-15T10:04:49.075Z,3.34
2023-04-15T10:05:40.893Z,3.42
2023-04-15T10:06:33.903Z,3.73
2023-04-15T10:07:28.117Z,3.89
2023-04-15T10:08:25.093Z,3.70
2023-04-15T10:09:17.720Z,3.96
2023-04-15T10:10:10.800Z,4.24
2023-04-15T10:11:04.494Z,3.84
2023-04-15T10:11:58.282Z,3.89
2023-04-15T10:12:53.589Z,4.11
2023-04-15T10:13:47.307Z,4.06
2023-04-15T10:14:43.143Z,4.03
2023-04-15T10:15:36.134Z,4.42
2023-04-15T10:16:32.825Z,4.62
2023-04-15T10:17:33.790Z,4.51
2023-04-15T10:18:27.213Z,4.60
2023-04-15T10:19:27.539Z,4.48
2023-04-15T10:20:19.808Z,4.33
2023-04-15T10:21:13.998Z,4.46
2023-04-15T10:22:06.580Z,4.57
2023-04-15T10:22:58.418Z,4.39
2023-04-15T10:23:50.418Z,4.70
2023-04-15T10:24:43.422Z,5.12
2023-04-15T10:25:35.228Z,4.89
2023-04-15T10:26:27.306Z,5.08
2023-04-15T10:27:19.726Z,4.60
2023-04-15T10:28:11.902Z,4.41
2023-04-15T10:29:03.823Z,4.05
2023-04-15T10:29:59.904Z,4.53
2023-04-15T10:30:53.494Z,4.78
2023-04-15T10:31:46.993Z,4.61
2023-04-15T10:32:39.956Z,4.86
2023-04-15T10:33:33.478Z,4.63
2023-04-15T10:34:26.237Z,4.51
2023-04-15T10:35:21.819Z,4.49
2023-04-15T10:36:16.494Z,4.44
2023-04-15T10:37:11.667Z,4.98
2023-04-15T10:38:03.258Z,4.87
2023-04-15T10:38:57.629Z,4.94
2023-04-15T10:39:49.079Z,5.28
2023-04-15T10:40:40.849Z,5.85
2023-04-15T10:41:34.478Z,6.07
2023-04-15T10:42:34.478Z,5.34
2023-04-15T10:43:29.082Z,5.09
2023-04-15T10:44:20.686Z,5.63
2023-04-15T10:45:21.189Z,5.16
2023-04-15T10:46:12.915Z,4.81
2023-04-15T10:47:12.750Z,5.00
2023-04-15T10:48:08.118Z,4.89
2023-04-15T10:49:16.526Z,4.71
2023-04-15T10:50:10.242Z,4.85
2023-04-15T10:51:06.970Z,5.17
2023-04-15T10:51:59.597Z,4.47
2023-04-15T10:52:52.652Z,4.34
2023-04-15T10:53:44.331Z,4.76
2023-04-15T10:54:38.777Z,4.64
2023-04-15T10:55:35.575Z,4.51
2023-04-15T10:56:33.513Z,4.85
2023-04-15T10:57:25.321Z,5.42
2023-04-15T10:58:16.790Z,5.42
2023-04-15T10:59:08.199Z,5.19
2023-04-15T11:00:06.649Z,5.02
2023-04-15T11:00:58.068Z,5.43
2023-04-15T11:02:00.002Z,4.76
2023-04-15T11:03:05.009Z,5.19
2023-04-15T11:03:56.716Z,4.52
2023-04-15T11:04:58.661Z,4.64
2023-04-15T11:05:53.549Z,4.06
2023-04-15T11:06:48.215Z,4.43
2023-04-15T11:07:44.853Z,3.95
2023-04-15T11:08:57.196Z,3.74
2023-04-15T11:09:49.840Z,3.48
2023-04-15T11:10:41.278Z,3.56
2023-04-15T11:12:10.414Z,3.80
2023-04-15T11:13:15.886Z,3.28
2023-04-15T11:14:16.061Z,3.42
2023-04-15T11:15:46.736Z,3.73
2023-04-15T11:16:47.106Z,3.89
2023-04-15T11:17:41.943Z,3.51
2023-04-15T11:18:36.750Z,3.63
2023-04-15T11:19:36.134Z,3.37
2023-04-15T11:20:27.659Z,3.68
2023-04-15T11:21:24.214Z,3.53
2023-04-15T11:22:15.891Z,4.04
2023-04-15T11:23:14.387Z,3.65
2023-04-15T11:24:07.011Z,3.62
2023-04-15T11:24:58.519Z,4.01
2023-04-15T11:25:55.581Z,4.09
2023-04-15T11:26:47.109Z,4.19
2023-04-15T11:27:38.710Z,3.95
2023-04-15T11:28:31.118Z,3.79
2023-04-15T11:29:23.044Z,3.98
2023-04-15T11:30:25.867Z,4.23
2023-04-15T11:31:19.897Z,3.90
2023-04-15T11:32:11.637Z,4.06
2023-04-15T11:33:05.529Z,4.39
2023-04-15T11:34:02.768Z,3.88
2023-04-15T11:34:54.125Z,4.23
2023-04-15T11:35:47.472Z,3.67
2023-04-15T11:36:39.115Z,3.94
2023-04-15T11:37:32.162Z,4.01
2023-04-15T11:38:23.693Z,3.95
2023-04-15T11:39:17.944Z,4.73
2023-04-15T11:40:10.303Z,5.00
2023-04-15T11:41:01.833Z,4.19
2023-04-15T11:41:53.393Z,4.69
2023-04-15T11:42:49.593Z,4.91
2023-04-15T11:43:41.506Z,5.41